createdAt,value
2018-06-20T00:00:23.845Z,50.20
2018-06-20T00:02:51.489Z,50.30
2018-06-20T00:05:19.362Z,50.40
2018-06-20T00:10:14.671Z,50.50
2018-06-20T00:12:42.269Z,50.60
2018-06-20T00:15:09.922Z,50.70
2018-06-20T00:17:37.559Z,50.60
2018-06-20T00:20:05.216Z,50.70
2018-06-20T00:22:32.898Z,50.70
2018-06-20T00:27:28.187Z,50.80
2018-06-20T00:29:55.791Z,50.80
2018-06-20T00:32:23.405Z,50.90
2018-06-20T00:34:51.056Z,50.90
2018-06-20T00:37:18.732Z,51.00
2018-06-20T00:39:46.327Z,51.10
2018-06-20T00:42:14.023Z,51.00
2018-06-20T00:44:42.275Z,51.10
2018-06-20T00:47:09.888Z,51.10
2018-06-20T00:49:37.482Z,51.10
2018-06-20T00:52:05.105Z,51.10
2018-06-20T00:54:32.713Z,51.10
2018-06-20T00:57:00.345Z,51.20
2018-06-20T00:59:28.036Z,51.20
2018-06-20T01:01:55.662Z,51.90
2018-06-20T01:04:23.284Z,51.40
2018-06-20T01:06:50.903Z,51.40
2018-06-20T01:09:18.604Z,51.40
2018-06-20T01:11:46.260Z,51.40
2018-06-20T01:14:13.848Z,51.40
2018-06-20T01:16:41.468Z,51.30
2018-06-20T01:19:09.080Z,51.40
2018-06-20T01:21:36.688Z,51.40
2018-06-20T01:24:04.332Z,51.40
2018-06-20T01:55:49.754Z,51.40
2018-06-20T01:58:17.378Z,51.50
2018-06-20T02:00:44.973Z,51.40
2018-06-20T02:03:12.555Z,52.00
2018-06-20T02:05:40.171Z,52.30
2018-06-20T02:08:07.803Z,52.50
2018-06-20T02:10:35.501Z,52.60
2018-06-20T02:13:03.234Z,52.70
2018-06-20T02:15:30.903Z,52.70
2018-06-20T02:17:58.519Z,52.70
2018-06-20T02:20:32.880Z,52.70
2018-06-20T02:23:00.593Z,53.30
2018-06-20T02:25:28.332Z,52.70
2018-06-20T02:27:55.970Z,52.70
2018-06-20T02:30:23.569Z,52.70
2018-06-20T02:32:51.204Z,52.70
2018-06-20T02:35:18.848Z,52.70
2018-06-20T02:37:46.509Z,52.70
2018-06-20T02:40:14.071Z,52.60
2018-06-20T02:45:12.994Z,52.70
2018-06-20T02:47:41.818Z,52.60
2018-06-20T02:50:10.570Z,52.70
2018-06-20T02:52:38.461Z,52.70
2018-06-20T02:55:06.159Z,52.70
2018-06-20T02:57:33.781Z,52.70
2018-06-20T03:00:01.794Z,52.80
2018-06-20T03:02:29.403Z,52.80
2018-06-20T03:04:57.005Z,52.70
2018-06-20T03:09:52.277Z,52.80
2018-06-20T03:12:19.958Z,52.90
2018-06-20T03:14:47.686Z,52.90
2018-06-20T03:17:15.324Z,52.90
2018-06-20T03:19:42.952Z,52.90
2018-06-20T03:22:10.627Z,53.00
2018-06-20T03:24:38.254Z,53.10
2018-06-20T03:27:06.064Z,53.00
2018-06-20T03:29:33.814Z,53.10
2018-06-20T03:32:01.460Z,53.10
2018-06-20T03:34:29.098Z,53.20
2018-06-20T03:36:56.742Z,53.30
2018-06-20T03:39:24.442Z,53.40
2018-06-20T03:44:19.652Z,53.60
2018-06-20T03:46:47.272Z,53.50
2018-06-20T03:49:14.913Z,53.50
2018-06-20T03:51:42.502Z,53.50
2018-06-20T03:54:10.093Z,53.50
2018-06-20T03:56:37.704Z,53.60
2018-06-20T03:59:05.381Z,53.60
2018-06-20T04:01:32.985Z,53.60
2018-06-20T04:04:00.640Z,53.60
2018-06-20T04:06:28.237Z,53.60
2018-06-20T04:08:55.841Z,53.60
2018-06-20T04:11:23.441Z,53.60
2018-06-20T04:13:51.072Z,53.70
2018-06-20T04:16:18.681Z,53.80
2018-06-20T04:18:46.307Z,53.80
2018-06-20T04:21:15.159Z,53.70
2018-06-20T04:23:42.735Z,53.70
2018-06-20T04:26:11.011Z,53.70
2018-06-20T04:28:38.686Z,53.80
2018-06-20T04:31:07.308Z,53.70
2018-06-20T04:33:35.940Z,54.20
2018-06-20T04:36:03.680Z,53.60
2018-06-20T04:38:31.348Z,53.50
2018-06-20T04:40:59.706Z,53.50
2018-06-20T04:45:55.315Z,53.50
2018-06-20T04:48:23.190Z,53.50
2018-06-20T04:50:50.861Z,53.50
2018-06-20T04:53:18.543Z,53.50
2018-06-20T04:55:46.206Z,53.50
2018-06-20T04:58:14.606Z,53.50
2018-06-20T05:00:42.571Z,53.60
2018-06-20T05:03:10.188Z,53.70
2018-06-20T05:05:37.801Z,53.50
2018-06-20T05:08:05.500Z,53.40
2018-06-20T05:10:33.219Z,53.30
2018-06-20T05:13:00.881Z,53.20
2018-06-20T05:15:28.486Z,53.10
2018-06-20T05:17:56.128Z,53.10
2018-06-20T05:20:23.744Z,53.00
2018-06-20T05:22:51.315Z,53.00
2018-06-20T05:25:18.967Z,53.00
2018-06-20T05:27:46.680Z,53.00
2018-06-20T05:30:14.324Z,53.00
2018-06-20T05:32:41.933Z,53.00
2018-06-20T05:35:09.548Z,53.10
2018-06-20T05:37:37.313Z,53.20
2018-06-20T05:40:05.355Z,53.20
2018-06-20T05:42:32.971Z,53.30
2018-06-20T05:45:00.602Z,53.30
2018-06-20T05:47:28.237Z,53.20
2018-06-20T05:49:55.889Z,53.20
2018-06-20T05:52:23.520Z,53.10
2018-06-20T05:54:51.185Z,53.20
2018-06-20T05:57:18.855Z,53.20
2018-06-20T05:59:46.488Z,53.30
2018-06-20T06:02:14.457Z,53.20
2018-06-20T06:04:42.121Z,53.30
2018-06-20T06:09:38.004Z,53.50
2018-06-20T06:12:06.287Z,53.40
2018-06-20T06:14:34.056Z,53.40
2018-06-20T06:17:01.772Z,53.20
2018-06-20T06:19:29.428Z,53.00
2018-06-20T06:21:57.040Z,52.90
2018-06-20T06:24:24.675Z,52.80
2018-06-20T06:26:52.360Z,52.70
2018-06-20T06:29:20.012Z,52.50
2018-06-20T06:31:47.672Z,52.20
2018-06-20T06:34:15.240Z,51.90
2018-06-20T06:36:42.921Z,51.80
2018-06-20T06:39:11.394Z,51.70
2018-06-20T06:41:39.260Z,51.70
2018-06-20T06:44:06.907Z,51.60
2018-06-20T06:46:34.641Z,51.40
2018-06-20T06:49:09.081Z,51.20
2018-06-20T06:51:36.685Z,50.80
2018-06-20T06:54:04.359Z,50.40
2018-06-20T06:56:32.030Z,50.10
2018-06-20T06:58:59.628Z,49.90
2018-06-20T07:01:27.257Z,49.70
2018-06-20T07:03:54.856Z,49.30
2018-06-20T07:08:50.157Z,48.90
2018-06-20T07:11:19.791Z,48.60
2018-06-20T07:13:52.225Z,48.60
2018-06-20T07:16:19.820Z,48.50
2018-06-20T07:18:47.448Z,48.30
2018-06-20T07:21:15.039Z,48.20
2018-06-20T07:23:42.776Z,48.30
2018-06-20T07:26:10.399Z,48.50
2018-06-20T07:28:38.015Z,48.70
2018-06-20T07:31:05.781Z,48.80
2018-06-20T07:33:33.981Z,48.80
2018-06-20T07:36:01.786Z,48.70
2018-06-20T07:38:29.267Z,48.50
2018-06-20T07:40:56.903Z,48.50
2018-06-20T07:43:24.508Z,48.30
2018-06-20T07:45:52.105Z,47.90
2018-06-20T07:48:19.686Z,47.60
2018-06-20T07:50:47.351Z,47.30
2018-06-20T07:53:14.982Z,47.20
2018-06-20T07:55:42.625Z,47.10
2018-06-20T07:58:14.870Z,47.00
2018-06-20T08:00:48.377Z,46.70
2018-06-20T08:03:21.817Z,46.40
2018-06-20T08:05:55.274Z,46.40
2018-06-20T08:08:28.706Z,46.00
2018-06-20T08:11:02.517Z,45.80
2018-06-20T08:13:35.933Z,45.60
2018-06-20T08:16:09.310Z,45.40
2018-06-20T08:18:42.644Z,45.00
2018-06-20T08:21:10.257Z,44.80
2018-06-20T08:23:37.806Z,45.20
2018-06-20T08:26:05.375Z,45.80
2018-06-20T08:28:32.980Z,45.70
2018-06-20T08:31:00.597Z,45.40
2018-06-20T08:33:28.225Z,45.00
2018-06-20T08:35:55.855Z,44.70
2018-06-20T08:38:23.491Z,43.70
2018-06-20T08:40:51.083Z,42.90
2018-06-20T08:43:19.642Z,42.50
2018-06-20T08:45:47.286Z,41.90
2018-06-20T08:48:14.911Z,41.30
2018-06-20T08:50:42.504Z,40.90
2018-06-20T08:53:10.147Z,40.30
2018-06-20T08:55:37.709Z,39.50
2018-06-20T08:58:05.448Z,38.70
2018-06-20T09:00:38.799Z,38.10
2018-06-20T09:03:06.407Z,37.60
2018-06-20T09:05:39.827Z,37.10
2018-06-20T09:08:13.251Z,35.40
2018-06-20T09:10:47.740Z,34.60
2018-06-20T09:13:21.160Z,34.10
2018-06-20T09:18:27.918Z,33.90
2018-06-20T09:20:55.547Z,33.30
2018-06-20T09:23:23.245Z,33.00
2018-06-20T09:25:50.895Z,32.80
2018-06-20T09:28:18.493Z,32.40
2018-06-20T09:30:46.093Z,32.20
2018-06-20T09:33:13.711Z,32.00
2018-06-20T09:35:41.286Z,31.70
2018-06-20T09:38:08.896Z,31.30
2018-06-20T09:40:36.476Z,30.80
2018-06-20T09:43:04.094Z,30.50
2018-06-20T09:55:17.257Z,29.30
2018-06-20T09:57:44.901Z,29.00
2018-06-20T10:00:18.321Z,30.00
2018-06-20T10:02:51.746Z,29.40
2018-06-20T10:05:25.058Z,29.20
2018-06-20T10:07:58.402Z,29.20
2018-06-20T10:10:31.764Z,28.90
2018-06-20T10:13:05.113Z,28.70
2018-06-20T10:15:32.746Z,28.70
2018-06-20T10:18:00.385Z,28.80
2018-06-20T10:20:29.205Z,28.80
2018-06-20T10:22:58.558Z,28.80
2018-06-20T10:25:26.748Z,29.20
2018-06-20T10:27:54.410Z,28.50
2018-06-20T10:30:22.422Z,28.20
2018-06-20T10:32:50.293Z,28.10
2018-06-20T10:35:17.902Z,28.20
2018-06-20T10:37:45.565Z,28.30
2018-06-20T10:40:13.217Z,28.40
2018-06-20T10:42:40.819Z,28.60
2018-06-20T10:45:14.203Z,28.80
2018-06-20T10:47:43.167Z,28.70
2018-06-20T10:50:11.327Z,28.50
2018-06-20T10:52:38.947Z,28.60
2018-06-20T10:55:10.170Z,28.60
2018-06-20T10:57:43.971Z,28.60
2018-06-20T11:01:17.964Z,28.60
2018-06-20T11:03:51.553Z,28.30
2018-06-20T11:06:25.094Z,28.10
2018-06-20T11:08:58.517Z,28.30
2018-06-20T11:11:31.851Z,28.60
2018-06-20T11:13:59.525Z,28.70
2018-06-20T11:16:27.113Z,28.60
2018-06-20T11:18:55.572Z,28.40
2018-06-20T11:21:23.197Z,28.30
2018-06-20T11:23:51.181Z,28.30
2018-06-20T11:26:19.085Z,28.30
2018-06-20T11:28:46.663Z,28.40
2018-06-20T11:31:14.285Z,28.40
2018-06-20T11:33:41.885Z,28.30
2018-06-20T11:36:09.484Z,28.70
2018-06-20T11:38:37.059Z,28.20
2018-06-20T11:41:04.650Z,27.90
2018-06-20T11:43:32.248Z,27.80
2018-06-20T11:46:05.693Z,27.50
2018-06-20T11:48:33.270Z,27.20
2018-06-20T11:51:00.867Z,27.00
2018-06-20T11:53:28.452Z,26.80
2018-06-20T11:55:56.060Z,27.10
2018-06-20T11:58:29.415Z,26.50
2018-06-20T12:01:02.715Z,26.30
2018-06-20T12:03:36.135Z,26.30
2018-06-20T12:06:09.558Z,26.30
2018-06-20T12:08:42.882Z,26.10
2018-06-20T12:11:16.319Z,25.90
2018-06-20T12:13:49.691Z,25.90
2018-06-20T12:16:21.031Z,25.90
2018-06-20T12:18:54.399Z,26.20
2018-06-20T12:21:28.136Z,26.20
2018-06-20T12:24:01.525Z,26.30
2018-06-20T12:26:34.952Z,26.10
2018-06-20T12:29:08.260Z,25.90
2018-06-20T12:31:41.683Z,25.80
2018-06-20T12:34:15.240Z,25.60
2018-06-20T12:36:48.623Z,25.60
2018-06-20T12:39:15.793Z,25.50
2018-06-20T12:41:49.041Z,25.60
2018-06-20T12:44:22.351Z,25.70
2018-06-20T12:46:55.572Z,26.00
2018-06-20T12:51:54.587Z,26.30
2018-06-20T12:56:49.791Z,26.40
2018-06-20T12:59:17.372Z,26.30
2018-06-20T13:01:45.149Z,26.30
2018-06-20T13:04:12.769Z,26.00
2018-06-20T13:06:40.327Z,25.80
2018-06-20T13:09:10.492Z,25.80
2018-06-20T13:11:38.175Z,25.70
2018-06-20T13:14:05.793Z,25.70
2018-06-20T13:16:33.419Z,25.70
2018-06-20T13:19:01.680Z,25.60
2018-06-20T13:21:29.796Z,25.70
2018-06-20T13:23:57.550Z,25.70
2018-06-20T13:26:25.422Z,25.50
2018-06-20T13:28:53.480Z,25.20
2018-06-20T13:31:26.726Z,25.10
2018-06-20T13:34:00.069Z,25.10
2018-06-20T13:36:33.495Z,25.20
2018-06-20T13:40:04.871Z,25.50
2018-06-20T13:42:38.272Z,25.50
2018-06-20T13:47:45.228Z,25.80
2018-06-20T13:50:12.911Z,25.80
2018-06-20T13:52:40.622Z,25.80
2018-06-20T13:55:08.238Z,25.80
2018-06-20T13:57:35.864Z,25.80
2018-06-20T14:00:03.593Z,25.80
2018-06-20T14:02:31.195Z,25.90
2018-06-20T14:07:26.717Z,26.00
2018-06-20T14:09:54.331Z,26.20
2018-06-20T14:12:22.179Z,26.20
2018-06-20T14:14:50.295Z,26.20
2018-06-20T14:17:17.871Z,26.20
2018-06-20T14:19:51.291Z,26.10
2018-06-20T14:22:18.988Z,26.10
2018-06-20T14:24:46.637Z,26.20
2018-06-20T14:29:42.837Z,26.40
2018-06-20T14:32:16.383Z,26.50
2018-06-20T14:34:49.684Z,26.70
2018-06-20T14:37:23.082Z,26.70
2018-06-20T14:39:56.493Z,27.20
2018-06-20T14:45:03.409Z,26.70
2018-06-20T14:47:31.018Z,26.70
2018-06-20T14:49:58.645Z,26.70
2018-06-20T14:52:26.205Z,26.70
2018-06-20T14:54:53.824Z,26.70
2018-06-20T14:57:21.397Z,26.70
2018-06-20T14:59:48.961Z,26.70
2018-06-20T15:02:16.568Z,26.60
2018-06-20T15:04:44.215Z,26.70
2018-06-20T15:09:39.523Z,26.50
2018-06-20T15:12:07.194Z,26.50
2018-06-20T15:14:34.947Z,26.40
2018-06-20T15:17:08.516Z,26.40
2018-06-20T15:19:36.147Z,26.40
2018-06-20T15:22:03.792Z,26.60
2018-06-20T15:24:31.410Z,26.70
2018-06-20T15:27:04.778Z,26.70
2018-06-20T15:29:38.186Z,26.70
2018-06-20T15:32:12.305Z,27.20
2018-06-20T15:34:46.987Z,26.70
2018-06-20T15:37:20.251Z,26.70
2018-06-20T15:39:47.896Z,26.70
2018-06-20T15:42:15.467Z,26.70
2018-06-20T15:44:43.453Z,26.60
2018-06-20T15:47:11.053Z,26.60
2018-06-20T15:49:38.684Z,26.40
2018-06-20T15:52:06.405Z,26.50
2018-06-20T15:54:34.010Z,26.60
2018-06-20T15:57:01.652Z,26.70
2018-06-20T15:59:29.416Z,26.60
2018-06-20T16:01:56.994Z,26.70
2018-06-20T16:04:24.647Z,26.80
2018-06-20T16:06:52.323Z,26.70
2018-06-20T16:09:25.837Z,26.70
2018-06-20T16:11:53.535Z,26.80
2018-06-20T16:14:21.246Z,26.80
2018-06-20T16:16:49.002Z,27.00
2018-06-20T16:19:22.425Z,27.10
2018-06-20T16:21:55.939Z,27.10
2018-06-20T16:24:29.585Z,27.00
2018-06-20T16:27:02.920Z,27.00
2018-06-20T16:29:36.963Z,27.00
2018-06-20T16:32:04.620Z,27.10
2018-06-20T16:34:32.230Z,27.20
2018-06-20T16:36:59.831Z,27.30
2018-06-20T16:39:27.478Z,27.30
2018-06-20T16:41:55.334Z,27.30
2018-06-20T16:44:23.038Z,27.30
2018-06-20T16:46:50.623Z,27.20
2018-06-20T16:49:18.210Z,27.20
2018-06-20T16:51:45.859Z,27.30
2018-06-20T16:54:13.533Z,27.30
2018-06-20T16:56:41.223Z,27.40
2018-06-20T16:59:08.808Z,27.50
2018-06-20T17:01:42.117Z,27.70
2018-06-20T17:06:37.522Z,28.00
2018-06-20T17:09:07.575Z,28.00
2018-06-20T17:11:35.196Z,28.10
2018-06-20T17:14:08.821Z,28.10
2018-06-20T17:16:42.177Z,28.20
2018-06-20T17:19:15.593Z,28.30
2018-06-20T17:21:48.857Z,28.30
2018-06-20T17:24:22.220Z,28.40
2018-06-20T17:26:49.901Z,28.50
2018-06-20T17:29:17.855Z,28.60
2018-06-20T17:31:45.687Z,28.70
2018-06-20T17:34:13.276Z,28.60
2018-06-20T17:36:40.868Z,28.70
2018-06-20T17:39:10.273Z,28.80
2018-06-20T17:41:37.946Z,29.00
2018-06-20T17:44:05.567Z,29.10
2018-06-20T17:46:33.205Z,29.30
2018-06-20T17:51:28.545Z,29.50
2018-06-20T17:53:56.137Z,29.60
2018-06-20T17:56:23.795Z,29.70
2018-06-20T17:58:51.927Z,29.60
2018-06-20T18:01:19.522Z,29.70
2018-06-20T18:03:47.164Z,29.80
2018-06-20T18:06:20.841Z,29.90
2018-06-20T18:08:54.295Z,30.00
2018-06-20T18:11:27.750Z,30.00
2018-06-20T18:14:01.365Z,30.00
2018-06-20T18:16:34.768Z,30.10
2018-06-20T18:19:02.438Z,30.70
2018-06-20T18:21:30.051Z,30.30
2018-06-20T18:23:57.718Z,30.30
2018-06-20T18:26:27.349Z,30.40
2018-06-20T18:28:54.889Z,30.40
2018-06-20T18:31:22.496Z,30.50
2018-06-20T18:33:50.785Z,30.40
2018-06-20T18:36:18.441Z,30.40
2018-06-20T18:38:46.047Z,30.60
2018-06-20T18:43:41.577Z,30.60
2018-06-20T18:46:09.122Z,30.70
2018-06-20T18:48:36.765Z,30.60
2018-06-20T18:51:04.405Z,30.60
2018-06-20T18:53:31.977Z,30.70
2018-06-20T18:55:59.583Z,30.70
2018-06-20T18:58:33.117Z,30.90
2018-06-20T19:01:06.533Z,31.00
2018-06-20T19:03:39.843Z,31.10
2018-06-20T19:06:13.331Z,31.10
2018-06-20T19:11:14.327Z,31.40
2018-06-20T19:13:41.892Z,31.40
2018-06-20T19:16:10.188Z,31.60
2018-06-20T19:18:37.920Z,31.80
2018-06-20T19:21:05.675Z,31.90
2018-06-20T19:23:33.424Z,32.00
2018-06-20T19:26:01.028Z,32.80
2018-06-20T19:28:28.704Z,32.30
2018-06-20T19:30:56.441Z,32.40
2018-06-20T19:33:24.199Z,32.50
2018-06-20T19:38:19.749Z,32.70
2018-06-20T19:40:48.229Z,32.70
2018-06-20T19:43:15.786Z,32.90
2018-06-20T19:45:43.376Z,33.00
2018-06-20T19:48:10.956Z,33.10
2018-06-20T19:50:38.558Z,33.30
2018-06-20T19:53:06.174Z,33.50
2018-06-20T19:55:33.782Z,33.70
2018-06-20T19:58:01.457Z,33.90
2018-06-20T20:00:29.109Z,34.00
2018-06-20T20:02:56.680Z,34.20
2018-06-20T20:05:24.296Z,34.30
2018-06-20T20:07:52.227Z,35.10
2018-06-20T20:10:19.771Z,34.70
2018-06-20T20:12:47.359Z,34.80
2018-06-20T20:15:15.079Z,35.00
2018-06-20T20:17:42.679Z,35.10
2018-06-20T20:20:10.396Z,35.20
2018-06-20T20:22:38.244Z,35.30
2018-06-20T20:25:05.966Z,35.40
2018-06-20T20:27:33.549Z,35.50
2018-06-20T20:30:01.148Z,35.60
2018-06-20T20:32:28.815Z,35.80
2018-06-20T20:34:56.458Z,35.80
2018-06-20T20:37:24.108Z,36.00
2018-06-20T20:42:19.517Z,36.30
2018-06-20T20:44:47.169Z,36.40
2018-06-20T20:47:14.823Z,36.60
2018-06-20T20:49:42.498Z,36.70
2018-06-20T20:52:10.158Z,36.80
2018-06-20T20:57:12.166Z,37.10
2018-06-20T20:59:39.920Z,37.10
2018-06-20T21:02:07.714Z,37.30
2018-06-20T21:04:35.387Z,37.40
2018-06-20T21:07:03.082Z,37.50
2018-06-20T21:09:32.107Z,37.70
2018-06-20T21:11:59.942Z,37.70
2018-06-20T21:14:28.071Z,37.80
2018-06-20T21:16:55.882Z,37.90
2018-06-20T21:19:23.596Z,38.00
2018-06-20T21:21:51.295Z,38.00
2018-06-20T21:24:19.031Z,38.00
2018-06-20T21:26:46.612Z,38.10
2018-06-20T21:29:14.260Z,38.20
2018-06-20T21:31:42.024Z,38.30
2018-06-20T21:34:09.610Z,38.40
2018-06-20T21:36:37.407Z,38.40
2018-06-20T21:39:07.875Z,38.50
2018-06-20T21:41:35.490Z,38.70
2018-06-20T21:44:03.321Z,38.60
2018-06-20T21:46:31.043Z,38.70
2018-06-20T21:48:58.679Z,38.70
2018-06-20T21:51:26.279Z,38.80
2018-06-20T21:53:54.038Z,38.90
2018-06-20T21:56:21.742Z,38.90
2018-06-20T21:58:49.432Z,38.90
2018-06-20T22:01:17.067Z,39.00
2018-06-20T22:03:44.768Z,39.00
2018-06-20T22:06:12.389Z,39.00
2018-06-20T22:08:40.050Z,39.10
2018-06-20T22:11:07.676Z,39.20
2018-06-20T22:13:35.523Z,39.30
2018-06-20T22:16:03.256Z,39.20
2018-06-20T22:18:30.953Z,39.30
2018-06-20T22:20:59.679Z,39.30
2018-06-20T22:23:27.433Z,39.40
2018-06-20T22:25:55.129Z,39.50
2018-06-20T22:30:57.090Z,39.50
2018-06-20T22:33:24.929Z,39.50
2018-06-20T22:35:52.725Z,39.50
2018-06-20T22:38:21.455Z,39.60
2018-06-20T22:40:49.447Z,39.60
2018-06-20T22:43:17.362Z,39.60
2018-06-20T22:45:46.943Z,39.60
2018-06-20T22:48:15.013Z,39.60
2018-06-20T22:50:43.006Z,39.70
2018-06-20T22:53:11.014Z,39.80
2018-06-20T22:55:38.984Z,39.90
2018-06-20T22:58:07.000Z,39.90
2018-06-20T23:00:34.867Z,40.00
2018-06-20T23:03:02.672Z,40.10
2018-06-20T23:05:30.510Z,40.20
2018-06-20T23:07:58.375Z,40.20
2018-06-20T23:10:26.063Z,40.30
2018-06-20T23:12:53.656Z,40.40
2018-06-20T23:15:21.214Z,40.50
2018-06-20T23:17:48.889Z,40.50
2018-06-20T23:20:16.463Z,40.60
2018-06-20T23:22:44.612Z,40.70
2018-06-20T23:25:12.588Z,40.60
2018-06-20T23:27:40.363Z,40.70
2018-06-20T23:30:08.108Z,40.70
2018-06-20T23:32:35.756Z,40.70
2018-06-20T23:35:03.473Z,40.80
2018-06-20T23:39:58.968Z,40.80
2018-06-20T23:42:26.602Z,40.80
2018-06-20T23:44:54.219Z,40.80
2018-06-20T23:47:21.955Z,40.80
2018-06-20T23:49:49.504Z,40.80
2018-06-20T23:52:17.118Z,40.80
2018-06-20T23:54:44.899Z,40.90
2018-06-20T23:57:12.506Z,40.90
2018-06-20T23:59:40.128Z,41.00
